Orbital elements of SL-12 R/B
| Launched | 30 May 1989 |
| Flight ended | – |
| Launch site | Tyuratam Missile and Space Center, Kazakhstan (Also known as Baikonur Cosmodrome) |
| Owner | Commonwealth of Independent States (former USSR) |
| NORAD ID | 20082 |
| Alternative names |
AUX MOTOR |
| Date fetched |
Epoch osculation |
Inc. [°] |
Ecc. | RA asc node [hr] |
Arg Peri. [°] |
Mean anom [°] |
Mean motion [rev/day] |
Abs. mag |
| Date fetched |
Epoch osculation |
Inc. [°] |
Ecc. | RA asc node [hr] |
Arg Peri. [°] |
Mean anom [°] |
Mean motion [rev/day] |
Abs. mag |
| 2026 May 03 17:57 | 2026 Apr 30 11:19:44 | 65.1094 | 0.55536 | 1.6841 | 95.2313 | 327.0310 | 4.42425 | 8.243 |
| 2026 May 02 17:57 | 2026 Apr 30 11:19:44 | 65.1094 | 0.55536 | 1.6841 | 95.2313 | 327.0310 | 4.42425 | 8.243 |
| 2026 May 01 17:56 | 2026 Apr 30 11:19:44 | 65.1094 | 0.55536 | 1.6841 | 95.2313 | 327.0310 | 4.42425 | 8.243 |
| 2026 Apr 30 17:56 | 2026 Apr 30 11:19:44 | 65.1094 | 0.55536 | 1.6841 | 95.2313 | 327.0310 | 4.42425 | 8.243 |
| 2026 Apr 29 17:57 | 2026 Apr 24 08:51:37 | 65.1074 | 0.55532 | 1.8382 | 95.5438 | 327.0310 | 4.42425 | 8.243 |
| 2026 Apr 28 17:56 | 2026 Apr 24 08:51:37 | 65.1074 | 0.55532 | 1.8382 | 95.5438 | 327.0310 | 4.42425 | 8.243 |
| 2026 Apr 27 17:58 | 2026 Apr 24 08:51:37 | 65.1074 | 0.55532 | 1.8382 | 95.5438 | 327.0310 | 4.42425 | 8.243 |
| 2026 Apr 26 17:58 | 2026 Apr 24 08:51:37 | 65.1074 | 0.55532 | 1.8382 | 95.5438 | 327.0310 | 4.42425 | 8.243 |
| 2026 Apr 25 17:58 | 2026 Apr 24 08:51:37 | 65.1074 | 0.55532 | 1.8382 | 95.5438 | 327.0310 | 4.42425 | 8.243 |
| 2026 Apr 24 17:59 | 2026 Apr 24 08:51:37 | 65.1074 | 0.55532 | 1.8382 | 95.5438 | 327.0310 | 4.42425 | 8.243 |
| 2026 Apr 23 17:57 | 2026 Apr 19 04:05:24 | 65.1057 | 0.55527 | 1.9694 | 95.8092 | 327.0310 | 4.42425 | 8.243 |
| 2026 Apr 22 17:57 | 2026 Apr 19 04:05:24 | 65.1057 | 0.55527 | 1.9694 | 95.8092 | 327.0310 | 4.42425 | 8.243 |
| 2026 Apr 21 17:57 | 2026 Apr 19 04:05:24 | 65.1057 | 0.55527 | 1.9694 | 95.8092 | 327.0310 | 4.42425 | 8.243 |
| 2026 Apr 20 17:57 | 2026 Apr 19 04:05:24 | 65.1057 | 0.55527 | 1.9694 | 95.8092 | 327.0310 | 4.42425 | 8.243 |
| 2026 Apr 19 17:58 | 2026 Apr 19 04:05:24 | 65.1057 | 0.55527 | 1.9694 | 95.8092 | 327.0310 | 4.42425 | 8.243 |
| 2026 Apr 18 17:56 | 2026 Apr 12 20:11:46 | 65.1037 | 0.55520 | 2.1292 | 96.1335 | 327.0310 | 4.42425 | 8.243 |
| 2026 Apr 16 17:57 | 2026 Apr 12 20:11:46 | 65.1037 | 0.55520 | 2.1292 | 96.1335 | 327.0310 | 4.42425 | 8.243 |
| 2026 Apr 14 17:57 | 2026 Apr 12 20:11:46 | 65.1037 | 0.55520 | 2.1292 | 96.1335 | 327.0310 | 4.42425 | 8.243 |
| 2026 Apr 13 17:57 | 2026 Apr 12 20:11:46 | 65.1037 | 0.55520 | 2.1292 | 96.1335 | 327.0310 | 4.42425 | 8.243 |
| 2026 Apr 12 17:57 | 2026 Apr 08 13:07:29 | 65.1023 | 0.55515 | 2.2376 | 96.3553 | 327.0310 | 4.42425 | 8.243 |
| 2026 Apr 11 17:57 | 2026 Apr 08 13:07:29 | 65.1023 | 0.55515 | 2.2376 | 96.3553 | 327.0310 | 4.42425 | 8.243 |
| 2026 Apr 10 17:58 | 2026 Apr 08 13:07:29 | 65.1023 | 0.55515 | 2.2376 | 96.3553 | 327.0310 | 4.42425 | 8.243 |
| 2026 Apr 09 18:01 | 2026 Apr 08 13:07:29 | 65.1023 | 0.55515 | 2.2376 | 96.3553 | 327.0310 | 4.42425 | 8.243 |
| 2026 Apr 08 17:57 | 2026 Apr 08 13:07:29 | 65.1023 | 0.55515 | 2.2376 | 96.3553 | 327.0310 | 4.42425 | 8.243 |
| 2026 Apr 07 17:57 | 2026 Apr 02 05:13:47 | 65.1005 | 0.55508 | 2.3973 | 96.6814 | 327.0310 | 4.42425 | 8.243 |
| 2026 Apr 06 17:57 | 2026 Apr 02 05:13:47 | 65.1005 | 0.55508 | 2.3973 | 96.6814 | 327.0310 | 4.42425 | 8.243 |